Terminal Aerodrome Forecast
Issued by NWS Caribou, ME

Home | Current Version | Previous Version | Text Only | Print | Product List | Glossary On
Versions: 1 2 3 4 5 6 7 8 9 10 11 12 13 14 15 16
000
FTUS41 KCAR 170520
TAFBGR
TAF
KBGR 170520Z 1706/1806 24005KT P6SM OVC050
     FM171200 31005KT P6SM SCT050
     FM171800 01006KT P6SM SCT250
     FM180000 07005KT P6SM SCT250
      TEMPO 1803/1806 BKN030=

USA.gov is the U.S. government's official web portal to all federal, state and local government web resources and services.